WITT/BTJ METAR and TAF weather

Enter ICAO airport designator
Station Type Date Time Source
WITT METAR UTC NOAA

Error!


Station Type Date Time Source
WITT Decoded METAR UTC NOAA

Error!

Station Type Date Time Source
WITT TAF 2019/06/26 18:00 UTC NOAA

TAF WITT 261700Z 2618/2718 26006KT 9999 SCT018
BECMG 2619/2621 00000KT 6000 BKN016
BECMG 2701/2703 24008KT

Example: see airport list